createdAt,value
2024-02-02T05:00:33.128Z,2.07
2024-02-02T05:03:36.526Z,2.07
2024-02-02T05:06:39.472Z,2.03
2024-02-02T05:09:42.476Z,2.11
2024-02-02T05:12:45.882Z,2.17
2024-02-02T05:15:49.095Z,2.14
2024-02-02T05:18:52.381Z,2.11
2024-02-02T05:21:55.439Z,2.07
2024-02-02T05:24:58.188Z,2.09
2024-02-02T05:28:01.845Z,2.22
2024-02-02T05:31:04.731Z,2.42
2024-02-02T05:34:08.004Z,2.30
2024-02-02T05:37:10.985Z,2.31
2024-02-02T05:40:14.131Z,2.22
2024-02-02T05:43:16.814Z,2.25
2024-02-02T05:46:20.754Z,2.19
2024-02-02T05:49:24.180Z,2.13
2024-02-02T05:52:27.399Z,2.08
2024-02-02T05:55:30.125Z,2.08
2024-02-02T05:58:33.106Z,2.10
2024-02-02T06:01:35.813Z,2.07
2024-02-02T06:04:38.982Z,2.07
2024-02-02T06:07:41.905Z,2.03
2024-02-02T06:10:47.195Z,2.00
2024-02-02T06:13:57.103Z,1.99
2024-02-02T06:17:00.617Z,1.95
2024-02-02T06:20:04.358Z,1.97
2024-02-02T06:23:10.587Z,1.93
2024-02-02T06:26:13.448Z,1.95
2024-02-02T06:29:16.569Z,1.99
2024-02-02T06:32:22.253Z,2.08
2024-02-02T06:35:25.313Z,2.14
2024-02-02T06:38:28.204Z,2.26
2024-02-02T06:41:32.586Z,2.34
2024-02-02T06:44:37.014Z,2.30
2024-02-02T06:47:41.300Z,2.37
2024-02-02T06:50:45.751Z,2.42
2024-02-02T06:53:54.591Z,2.47
2024-02-02T06:56:57.388Z,2.61
2024-02-02T07:00:01.618Z,2.73
2024-02-02T07:03:07.399Z,2.87
2024-02-02T07:06:10.605Z,3.03
2024-02-02T07:09:19.505Z,3.21
2024-02-02T07:12:58.235Z,3.44
2024-02-02T07:16:01.505Z,3.60
2024-02-02T07:19:05.227Z,3.83
2024-02-02T07:22:39.221Z,3.97
2024-02-02T07:25:43.966Z,4.29
2024-02-02T07:28:46.748Z,4.57
2024-02-02T07:31:49.710Z,4.66
2024-02-02T07:34:56.172Z,4.58
2024-02-02T07:38:07.714Z,4.56
2024-02-02T07:41:13.610Z,4.24
2024-02-02T07:44:16.507Z,4.28
2024-02-02T07:47:19.293Z,4.23
2024-02-02T07:50:22.251Z,4.22
2024-02-02T07:53:25.369Z,4.07
2024-02-02T07:56:28.362Z,4.18
2024-02-02T07:59:31.095Z,4.27
2024-02-02T08:02:34.130Z,4.32
2024-02-02T08:05:38.565Z,4.36
2024-02-02T08:08:41.401Z,4.25
2024-02-02T08:11:44.456Z,4.19
2024-02-02T08:14:47.571Z,4.03
2024-02-02T08:17:52.146Z,3.99
2024-02-02T08:20:55.021Z,3.96
2024-02-02T08:23:59.561Z,4.25
2024-02-02T08:27:02.562Z,4.47
2024-02-02T08:30:09.692Z,4.62
2024-02-02T08:33:14.712Z,4.69
2024-02-02T08:36:19.587Z,4.67
2024-02-02T08:39:22.964Z,4.72
2024-02-02T08:42:26.422Z,4.55
2024-02-02T08:45:44.647Z,4.69
2024-02-02T08:48:50.166Z,4.69
2024-02-02T08:51:53.340Z,4.68
2024-02-02T08:54:56.437Z,4.58
2024-02-02T08:58:22.146Z,4.75
2024-02-02T09:01:43.860Z,4.66
2024-02-02T09:05:11.272Z,4.71
2024-02-02T09:08:17.156Z,4.78
2024-02-02T09:11:22.606Z,4.98
2024-02-02T09:14:27.619Z,4.97
2024-02-02T09:17:31.604Z,5.03
2024-02-02T09:20:34.562Z,5.21
2024-02-02T09:23:37.894Z,5.26
2024-02-02T09:26:41.418Z,5.44
2024-02-02T09:29:46.394Z,5.12
2024-02-02T09:32:50.100Z,5.31
2024-02-02T09:35:56.113Z,5.51
2024-02-02T09:39:19.118Z,5.43
2024-02-02T09:42:56.311Z,5.48
2024-02-02T09:45:59.328Z,5.53
2024-02-02T09:49:37.594Z,5.46
2024-02-02T09:53:02.459Z,5.62
2024-02-02T09:56:33.933Z,5.72
2024-02-02T10:00:02.768Z,5.65
2024-02-02T10:03:21.942Z,5.74
2024-02-02T10:06:46.437Z,5.85
2024-02-02T10:10:11.838Z,5.79
2024-02-02T10:13:33.663Z,5.90
2024-02-02T10:16:55.711Z,5.94
2024-02-02T10:20:19.018Z,6.00
2024-02-02T10:23:42.659Z,6.28
2024-02-02T10:27:25.975Z,6.02
2024-02-02T10:30:39.234Z,6.37
2024-02-02T10:33:48.193Z,6.16
2024-02-02T10:37:00.109Z,6.43
2024-02-02T10:40:07.899Z,6.37
2024-02-02T10:43:34.591Z,6.52
2024-02-02T10:46:51.855Z,6.44
2024-02-02T10:50:19.105Z,6.31
2024-02-02T10:53:48.773Z,6.44
2024-02-02T10:57:01.189Z,6.24
2024-02-02T11:00:25.669Z,6.10
2024-02-02T11:03:35.966Z,6.09
2024-02-02T11:06:56.671Z,5.96
2024-02-02T11:10:12.861Z,6.05
2024-02-02T11:13:31.118Z,6.01
2024-02-02T11:16:52.887Z,6.24
2024-02-02T11:20:34.222Z,6.43
2024-02-02T11:23:42.374Z,6.46
2024-02-02T11:26:55.918Z,6.57
2024-02-02T11:30:08.646Z,6.87
2024-02-02T11:33:27.053Z,7.22
2024-02-02T11:37:08.374Z,7.44
2024-02-02T11:40:11.985Z,7.52
2024-02-02T11:43:18.264Z,7.53
2024-02-02T11:46:26.599Z,7.66
2024-02-02T11:49:37.034Z,8.36
2024-02-02T11:52:46.179Z,8.49
2024-02-02T11:55:54.906Z,9.02
2024-02-02T11:59:20.015Z,9.00
2024-02-02T12:03:16.451Z,9.46
2024-02-02T12:06:21.101Z,10.11
2024-02-02T12:09:33.117Z,10.18
2024-02-02T12:12:46.696Z,10.56
2024-02-02T12:15:53.975Z,11.01
2024-02-02T12:18:57.278Z,11.12
2024-02-02T12:22:00.237Z,12.36
2024-02-02T12:25:10.904Z,12.53
2024-02-02T12:28:13.743Z,14.72
2024-02-02T12:31:16.705Z,15.47
2024-02-02T12:34:19.737Z,16.56
2024-02-02T12:37:22.820Z,16.43
2024-02-02T12:40:26.379Z,17.72
2024-02-02T12:43:30.158Z,16.92
2024-02-02T12:46:46.095Z,17.33
2024-02-02T12:49:49.296Z,17.94
2024-02-02T12:52:54.987Z,18.55
2024-02-02T12:55:57.986Z,18.92
2024-02-02T12:59:01.111Z,19.01
2024-02-02T13:02:06.272Z,18.15
2024-02-02T13:05:12.389Z,17.98
2024-02-02T13:08:17.959Z,17.04
2024-02-02T13:11:21.735Z,16.63
2024-02-02T13:14:30.067Z,14.68
2024-02-02T13:17:34.253Z,12.50
2024-02-02T13:20:38.032Z,11.40
2024-02-02T13:23:40.982Z,10.23
2024-02-02T13:26:44.651Z,9.10
2024-02-02T13:29:57.990Z,8.47
2024-02-02T13:33:07.810Z,8.08
2024-02-02T13:36:12.124Z,8.05
2024-02-02T13:39:22.845Z,8.19
2024-02-02T13:42:27.602Z,8.26
2024-02-02T13:45:31.715Z,8.32
2024-02-02T13:48:45.095Z,8.31
2024-02-02T13:51:48.808Z,8.43
2024-02-02T13:54:54.813Z,8.52
2024-02-02T13:57:59.307Z,8.48
2024-02-02T14:01:12.707Z,8.23
2024-02-02T14:04:26.328Z,7.85
2024-02-02T14:07:29.375Z,7.83
2024-02-02T14:10:46.773Z,7.43
2024-02-02T14:13:50.210Z,7.28
2024-02-02T14:17:04.431Z,7.23
2024-02-02T14:20:10.749Z,7.22
2024-02-02T14:23:15.669Z,7.23
2024-02-02T14:26:18.819Z,7.29
2024-02-02T14:29:23.776Z,7.29
2024-02-02T14:32:26.433Z,7.15
2024-02-02T14:35:29.450Z,7.22
2024-02-02T14:38:32.383Z,7.23
2024-02-02T14:41:36.872Z,7.38
2024-02-02T14:44:40.714Z,7.38
2024-02-02T14:47:44.756Z,7.39
2024-02-02T14:50:49.276Z,7.25
2024-02-02T14:53:53.506Z,7.07
2024-02-02T14:57:01.409Z,6.92
2024-02-02T15:00:11.595Z,6.86
2024-02-02T15:03:14.599Z,6.89
2024-02-02T15:06:18.993Z,6.83
2024-02-02T15:09:23.765Z,6.79
2024-02-02T15:12:27.798Z,6.69
2024-02-02T15:15:32.430Z,6.56
2024-02-02T15:18:36.931Z,6.59
2024-02-02T15:21:39.852Z,6.54
2024-02-02T15:24:43.736Z,6.34
2024-02-02T15:27:46.945Z,6.31
2024-02-02T15:30:50.368Z,6.24
2024-02-02T15:33:55.840Z,6.14
2024-02-02T15:36:59.019Z,6.10
2024-02-02T15:40:02.085Z,6.12
2024-02-02T15:43:06.036Z,6.00
2024-02-02T15:46:14.035Z,5.87
2024-02-02T15:49:17.917Z,5.84
2024-02-02T15:52:20.630Z,5.65
2024-02-02T15:55:27.231Z,5.52
2024-02-02T15:58:31.311Z,5.66
2024-02-02T16:01:36.136Z,5.64
2024-02-02T16:04:41.718Z,5.62
2024-02-02T16:07:46.695Z,5.59
2024-02-02T16:10:51.044Z,5.54
2024-02-02T16:13:55.061Z,5.45
2024-02-02T16:16:59.278Z,5.47
2024-02-02T16:20:02.408Z,5.45
2024-02-02T16:23:05.731Z,5.43
2024-02-02T16:26:11.043Z,5.43
2024-02-02T16:29:17.168Z,5.46
2024-02-02T16:32:21.376Z,5.51
2024-02-02T16:35:24.981Z,5.55
2024-02-02T16:38:29.236Z,5.59
2024-02-02T16:41:33.834Z,5.67
2024-02-02T16:44:37.833Z,5.63
2024-02-02T16:47:41.693Z,5.65
2024-02-02T16:50:45.210Z,5.65
